createdAt,value
2018-09-06T00:01:48.105Z,11.10
2018-09-06T00:04:16.441Z,12.43
2018-09-06T00:06:44.808Z,12.60
2018-09-06T00:09:13.162Z,12.97
2018-09-06T00:11:41.593Z,14.10
2018-09-06T00:14:09.926Z,13.00
2018-09-06T00:16:38.311Z,12.17
2018-09-06T00:19:06.683Z,17.47
2018-09-06T00:21:35.371Z,14.83
2018-09-06T00:24:03.732Z,10.83
2018-09-06T00:26:32.580Z,13.50
2018-09-06T00:29:02.613Z,12.70
2018-09-06T00:31:31.942Z,14.60
2018-09-06T00:34:01.318Z,12.40
2018-09-06T00:36:30.278Z,13.00
2018-09-06T00:38:59.078Z,15.10
2018-09-06T00:41:27.405Z,20.73
2018-09-06T00:43:55.753Z,15.00
2018-09-06T00:46:24.118Z,15.47
2018-09-06T00:48:53.405Z,13.50
2018-09-06T00:51:24.190Z,17.47
2018-09-06T00:53:53.423Z,15.03
2018-09-06T00:56:22.979Z,14.10
2018-09-06T00:58:51.636Z,15.20
2018-09-06T01:01:20.013Z,13.67
2018-09-06T01:03:48.416Z,14.53
2018-09-06T01:06:16.749Z,15.93
2018-09-06T01:08:45.200Z,13.60
2018-09-06T01:11:13.541Z,19.47
2018-09-06T01:13:41.979Z,13.50
2018-09-06T01:16:10.314Z,13.90
2018-09-06T01:18:38.745Z,16.10
2018-09-06T01:21:07.357Z,17.60
2018-09-06T01:23:40.573Z,17.60
2018-09-06T01:26:08.912Z,13.20
2018-09-06T01:28:37.274Z,13.23
2018-09-06T01:31:06.017Z,18.07
2018-09-06T01:33:34.365Z,14.77
2018-09-06T01:36:08.114Z,16.53
2018-09-06T01:38:37.412Z,18.00
2018-09-06T01:41:05.777Z,16.57
2018-09-06T01:43:34.113Z,15.70
2018-09-06T01:46:02.504Z,18.40
2018-09-06T01:48:31.861Z,17.13
2018-09-06T01:51:00.192Z,15.97
2018-09-06T01:53:30.215Z,18.33
2018-09-06T01:55:59.188Z,18.20
2018-09-06T01:58:28.103Z,16.90
2018-09-06T02:00:57.797Z,16.73
2018-09-06T02:03:27.333Z,15.30
2018-09-06T02:05:56.121Z,19.73
2018-09-06T02:08:25.373Z,16.40
2018-09-06T02:10:54.721Z,16.90
2018-09-06T02:13:24.120Z,18.17
2018-09-06T02:15:54.628Z,18.37
2018-09-06T02:18:23.834Z,17.73
2018-09-06T02:20:53.185Z,23.97
2018-09-06T02:23:23.374Z,16.70
2018-09-06T02:25:55.047Z,17.03
2018-09-06T02:28:24.353Z,17.37
2018-09-06T02:30:54.669Z,18.73
2018-09-06T02:33:24.122Z,15.13
2018-09-06T02:35:54.505Z,17.27
2018-09-06T02:38:24.265Z,19.83
2018-09-06T02:40:53.489Z,18.23
2018-09-06T02:43:24.290Z,20.30
2018-09-06T02:45:55.578Z,24.10
2018-09-06T02:48:30.195Z,16.53
2018-09-06T02:51:04.812Z,23.40
2018-09-06T02:53:34.249Z,19.67
2018-09-06T02:56:03.538Z,16.87
2018-09-06T02:58:31.870Z,17.60
2018-09-06T03:01:00.245Z,18.63
2018-09-06T03:03:30.329Z,27.87
2018-09-06T03:05:59.932Z,22.07
2018-09-06T03:08:29.363Z,23.77
2018-09-06T03:11:02.845Z,18.00
2018-09-06T03:13:31.811Z,19.23
2018-09-06T03:16:01.138Z,20.20
2018-09-06T03:18:30.209Z,26.67
2018-09-06T03:20:59.115Z,18.70
2018-09-06T03:23:28.299Z,18.00
2018-09-06T03:25:57.566Z,24.57
2018-09-06T03:28:26.805Z,23.00
2018-09-06T03:30:56.157Z,21.90
2018-09-06T03:33:25.515Z,22.33
2018-09-06T03:35:55.738Z,21.30
2018-09-06T03:38:24.242Z,21.43
2018-09-06T03:40:53.126Z,20.60
2018-09-06T03:43:23.863Z,20.13
2018-09-06T03:45:54.176Z,25.37
2018-09-06T03:48:23.473Z,28.50
2018-09-06T03:50:54.091Z,21.20
2018-09-06T03:53:23.305Z,25.83
2018-09-06T03:55:53.271Z,20.87
2018-09-06T03:58:22.402Z,20.97
2018-09-06T04:00:51.538Z,19.47
2018-09-06T04:03:19.872Z,23.60
2018-09-06T04:05:48.282Z,25.23
2018-09-06T04:08:16.710Z,21.03
2018-09-06T04:10:45.161Z,23.83
2018-09-06T04:13:13.489Z,22.13
2018-09-06T04:15:41.834Z,22.20
2018-09-06T04:18:10.188Z,24.47
2018-09-06T04:20:38.569Z,24.10
2018-09-06T04:23:06.906Z,23.80
2018-09-06T04:25:35.246Z,30.47
2018-09-06T04:28:03.650Z,21.80
2018-09-06T04:30:32.029Z,37.00
2018-09-06T04:33:01.050Z,30.43
2018-09-06T04:35:30.843Z,32.90
2018-09-06T04:38:00.333Z,24.60
2018-09-06T04:40:29.266Z,26.65
2018-09-06T04:42:57.717Z,24.80
2018-09-06T04:45:26.049Z,24.27
2018-09-06T04:47:54.390Z,25.90
2018-09-06T04:50:23.706Z,30.17
2018-09-06T04:52:53.034Z,26.77
2018-09-06T04:55:22.277Z,28.27
2018-09-06T04:57:52.174Z,27.00
2018-09-06T05:00:22.586Z,31.57
2018-09-06T05:02:52.518Z,29.90
2018-09-06T05:05:22.651Z,32.63
2018-09-06T05:07:52.598Z,32.53
2018-09-06T05:10:20.932Z,27.57
2018-09-06T05:12:51.441Z,35.20
2018-09-06T05:15:19.897Z,29.70
2018-09-06T05:17:49.164Z,34.50
2018-09-06T05:20:17.567Z,34.13
2018-09-06T05:22:45.913Z,39.97
2018-09-06T05:25:15.249Z,41.23
2018-09-06T05:27:44.733Z,38.13
2018-09-06T05:30:13.090Z,36.70
2018-09-06T05:32:41.407Z,31.17
2018-09-06T05:35:09.877Z,46.80
2018-09-06T05:37:38.308Z,32.13
2018-09-06T05:40:06.708Z,31.43
2018-09-06T05:42:35.057Z,34.43
2018-09-06T05:45:03.406Z,32.93
2018-09-06T05:47:33.474Z,29.60
2018-09-06T05:50:04.141Z,39.50
2018-09-06T05:52:33.551Z,37.83
2018-09-06T05:55:02.917Z,30.20
2018-09-06T05:57:32.044Z,28.67
2018-09-06T06:00:01.124Z,30.70
2018-09-06T06:02:31.533Z,30.43
2018-09-06T06:05:01.793Z,31.10
2018-09-06T06:07:41.576Z,35.13
2018-09-06T06:10:10.939Z,34.07
2018-09-06T06:12:39.381Z,29.40
2018-09-06T06:15:07.800Z,29.33
2018-09-06T06:17:36.147Z,28.43
2018-09-06T06:20:05.463Z,36.40
2018-09-06T06:22:34.730Z,31.37
2018-09-06T06:25:04.090Z,28.50
2018-09-06T06:27:32.493Z,31.30
2018-09-06T06:30:03.153Z,27.00
2018-09-06T06:32:32.906Z,28.53
2018-09-06T06:35:02.145Z,29.03
2018-09-06T06:37:31.205Z,25.93
2018-09-06T06:40:00.431Z,20.67
2018-09-06T06:42:28.830Z,25.57
2018-09-06T06:44:57.204Z,30.90
2018-09-06T06:47:26.080Z,23.80
2018-09-06T06:49:55.469Z,22.77
2018-09-06T06:52:24.749Z,25.80
2018-09-06T06:54:54.002Z,22.93
2018-09-06T06:57:22.572Z,26.10
2018-09-06T06:59:52.238Z,25.07
2018-09-06T07:02:21.639Z,27.87
2018-09-06T07:04:51.533Z,25.90
2018-09-06T07:07:19.865Z,24.90
2018-09-06T07:09:49.107Z,22.97
2018-09-06T07:12:17.516Z,21.23
2018-09-06T07:14:46.766Z,25.80
2018-09-06T07:17:15.242Z,21.77
2018-09-06T07:19:43.728Z,24.63
2018-09-06T07:22:13.053Z,24.73
2018-09-06T07:24:41.389Z,21.97
2018-09-06T07:27:09.733Z,22.23
2018-09-06T07:29:38.960Z,20.80
2018-09-06T07:32:07.948Z,21.03
2018-09-06T07:34:36.351Z,19.10
2018-09-06T07:37:05.492Z,25.27
2018-09-06T07:39:33.826Z,21.00
2018-09-06T07:42:02.230Z,24.03
2018-09-06T07:44:31.745Z,21.70
2018-09-06T07:47:00.761Z,30.77
2018-09-06T07:49:29.708Z,25.03
2018-09-06T07:51:58.061Z,21.40
2018-09-06T07:54:27.406Z,19.63
2018-09-06T07:56:55.748Z,21.70
2018-09-06T07:59:25.614Z,23.37
2018-09-06T08:01:54.794Z,20.13
2018-09-06T08:04:23.177Z,19.83
2018-09-06T08:06:53.063Z,25.83
2018-09-06T08:09:23.022Z,22.90
2018-09-06T08:11:52.065Z,21.37
2018-09-06T08:14:21.846Z,17.40
2018-09-06T08:16:51.180Z,21.00
2018-09-06T08:19:20.372Z,16.57
2018-09-06T08:21:48.705Z,18.33
2018-09-06T08:24:17.887Z,17.47
2018-09-06T08:26:48.085Z,16.77
2018-09-06T08:29:17.544Z,18.03
2018-09-06T08:31:46.397Z,17.57
2018-09-06T08:34:15.434Z,18.30
2018-09-06T08:36:43.871Z,15.13
2018-09-06T08:39:13.021Z,17.27
2018-09-06T08:41:41.573Z,17.23
2018-09-06T08:44:10.800Z,16.17
2018-09-06T08:46:39.173Z,17.30
2018-09-06T08:49:07.630Z,15.90
2018-09-06T08:51:37.051Z,16.53
2018-09-06T08:54:05.369Z,15.53
2018-09-06T08:56:37.785Z,12.97
2018-09-06T08:59:07.161Z,15.23
2018-09-06T09:01:39.857Z,18.00
2018-09-06T09:04:08.545Z,18.70
2018-09-06T09:06:38.489Z,35.50
2018-09-06T09:09:09.009Z,14.40
2018-09-06T09:11:37.448Z,13.70
2018-09-06T09:14:05.825Z,14.20
2018-09-06T09:16:35.240Z,19.33
2018-09-06T09:19:03.598Z,13.60
2018-09-06T09:21:32.081Z,14.07
2018-09-06T09:24:01.396Z,12.37
2018-09-06T09:26:29.716Z,13.97
2018-09-06T09:28:59.030Z,12.50
2018-09-06T09:31:27.394Z,15.43
2018-09-06T09:33:55.834Z,13.63
2018-09-06T09:36:24.282Z,14.03
2018-09-06T09:38:53.985Z,15.60
2018-09-06T09:41:23.611Z,11.93
2018-09-06T09:43:53.109Z,13.50
2018-09-06T09:48:51.316Z,11.00
2018-09-06T09:51:20.255Z,13.97
2018-09-06T09:53:48.685Z,12.73
2018-09-06T09:56:17.045Z,14.40
2018-09-06T09:58:46.272Z,12.30
2018-09-06T10:01:15.269Z,12.53
2018-09-06T10:06:23.246Z,11.67
2018-09-06T10:08:58.198Z,12.57
2018-09-06T10:11:26.527Z,11.80
2018-09-06T10:13:54.861Z,15.90
2018-09-06T10:16:23.253Z,11.93
2018-09-06T10:18:52.223Z,11.00
2018-09-06T10:21:21.372Z,11.87
2018-09-06T10:23:51.395Z,13.47
2018-09-06T10:26:19.834Z,10.30
2018-09-06T10:28:48.202Z,9.80
2018-09-06T10:31:18.572Z,9.10
2018-09-06T10:33:47.516Z,14.53
2018-09-06T10:36:16.449Z,13.60
2018-09-06T10:38:45.359Z,10.43
2018-09-06T10:41:13.705Z,10.20
2018-09-06T10:43:42.073Z,10.10
2018-09-06T10:46:10.473Z,12.20
2018-09-06T10:48:39.169Z,14.80
2018-09-06T10:51:07.492Z,13.20
2018-09-06T10:53:35.858Z,11.50
2018-09-06T10:56:04.181Z,12.83
2018-09-06T10:58:33.416Z,13.30
2018-09-06T11:01:08.226Z,12.90
2018-09-06T11:03:36.554Z,14.00
2018-09-06T11:06:04.933Z,11.63
2018-09-06T11:08:33.417Z,13.43
2018-09-06T11:11:02.811Z,12.83
2018-09-06T11:13:31.190Z,9.70
2018-09-06T11:15:59.698Z,15.47
2018-09-06T11:18:28.205Z,11.30
2018-09-06T11:20:57.649Z,12.07
2018-09-06T11:23:25.998Z,10.77
2018-09-06T11:25:56.189Z,13.80
2018-09-06T11:28:24.781Z,12.60
2018-09-06T11:30:53.113Z,13.10
2018-09-06T11:33:22.705Z,13.93
2018-09-06T11:35:51.333Z,12.27
2018-09-06T11:38:20.480Z,10.50
2018-09-06T11:40:50.631Z,9.97
2018-09-06T11:43:19.049Z,17.57
2018-09-06T11:45:48.469Z,16.17
2018-09-06T11:48:17.517Z,12.00
2018-09-06T11:50:47.940Z,9.90
2018-09-06T11:53:17.133Z,10.10
2018-09-06T11:55:47.601Z,11.20
2018-09-06T11:58:16.462Z,15.20
2018-09-06T12:00:46.342Z,12.73
2018-09-06T12:03:16.523Z,13.33
2018-09-06T12:05:45.384Z,9.13
2018-09-06T12:08:13.764Z,14.80
2018-09-06T12:10:42.099Z,11.00
2018-09-06T12:13:10.417Z,24.73
2018-09-06T12:15:39.644Z,10.00
2018-09-06T12:18:08.906Z,11.93
2018-09-06T12:20:37.313Z,16.40
2018-09-06T12:23:05.769Z,10.33
2018-09-06T12:25:34.180Z,10.47
2018-09-06T12:28:02.605Z,10.50
2018-09-06T12:30:30.956Z,18.17
2018-09-06T12:32:59.942Z,11.40
2018-09-06T12:35:28.422Z,12.07
2018-09-06T12:37:56.771Z,11.97
2018-09-06T12:41:28.372Z,15.37
2018-09-06T12:43:57.810Z,11.27
2018-09-06T12:46:26.206Z,9.70
2018-09-06T12:48:54.655Z,11.57
2018-09-06T12:51:22.989Z,13.30
2018-09-06T12:53:52.243Z,8.43
2018-09-06T12:56:22.289Z,12.00
2018-09-06T12:58:51.682Z,11.27
2018-09-06T13:01:22.259Z,12.07
2018-09-06T13:03:52.202Z,10.53
2018-09-06T13:06:22.613Z,13.70
2018-09-06T13:08:50.953Z,16.10
2018-09-06T13:11:21.293Z,11.50
2018-09-06T13:13:51.365Z,18.07
2018-09-06T13:16:21.429Z,26.63
2018-09-06T13:18:49.903Z,11.23
2018-09-06T13:21:18.578Z,10.40
2018-09-06T13:23:47.862Z,13.80
2018-09-06T13:26:17.517Z,12.00
2018-09-06T13:28:46.548Z,10.53
2018-09-06T13:31:14.961Z,11.17
2018-09-06T13:33:43.288Z,10.67
2018-09-06T13:36:11.628Z,11.17
2018-09-06T13:38:39.948Z,9.97
2018-09-06T13:41:08.284Z,15.47
2018-09-06T13:43:36.662Z,12.13
2018-09-06T13:46:05.245Z,10.20
2018-09-06T13:48:33.614Z,12.53
2018-09-06T13:51:01.995Z,12.37
2018-09-06T13:53:30.325Z,12.10
2018-09-06T13:55:58.912Z,12.00
2018-09-06T13:58:27.374Z,10.07
2018-09-06T14:00:55.705Z,9.23
2018-09-06T14:03:24.044Z,10.00
2018-09-06T14:05:55.281Z,10.07
2018-09-06T14:08:24.136Z,10.80
2018-09-06T14:10:53.598Z,15.57
2018-09-06T14:13:22.489Z,9.93
2018-09-06T14:15:52.319Z,10.43
2018-09-06T14:18:21.353Z,10.70
2018-09-06T14:20:50.325Z,13.70
2018-09-06T14:23:19.488Z,11.77
2018-09-06T14:25:48.813Z,12.27
2018-09-06T14:28:17.783Z,10.03
2018-09-06T14:30:46.602Z,13.37
2018-09-06T14:33:16.468Z,16.67
2018-09-06T14:35:45.523Z,14.83
2018-09-06T14:38:13.953Z,12.10
2018-09-06T14:40:42.241Z,11.57
2018-09-06T14:43:10.577Z,11.00
2018-09-06T14:45:38.985Z,11.60
2018-09-06T14:48:07.317Z,9.63
2018-09-06T14:50:35.649Z,12.70
2018-09-06T14:53:03.991Z,13.00
2018-09-06T14:55:32.354Z,16.37
2018-09-06T14:58:00.768Z,11.80
2018-09-06T15:00:29.101Z,21.27
2018-09-06T15:02:57.436Z,20.00
2018-09-06T15:05:25.752Z,13.07
2018-09-06T15:07:54.113Z,12.10
2018-09-06T15:10:23.557Z,12.73
2018-09-06T15:12:52.439Z,16.70
2018-09-06T15:15:21.486Z,12.73
2018-09-06T15:17:50.902Z,15.50
2018-09-06T15:20:19.262Z,12.67
2018-09-06T15:22:48.262Z,12.20
2018-09-06T15:25:17.158Z,10.50
2018-09-06T15:27:45.755Z,17.27
2018-09-06T15:30:14.089Z,16.40
2018-09-06T15:32:42.504Z,15.80
2018-09-06T15:35:10.823Z,10.43
2018-09-06T15:37:39.161Z,13.50
2018-09-06T15:40:07.590Z,13.03
2018-09-06T15:42:35.954Z,12.40
2018-09-06T15:45:05.612Z,13.73
2018-09-06T15:47:33.936Z,16.23
2018-09-06T15:50:02.777Z,13.40
2018-09-06T15:52:31.216Z,11.57
2018-09-06T15:54:59.637Z,12.57
2018-09-06T15:57:27.982Z,12.20
2018-09-06T15:59:56.318Z,12.53
2018-09-06T16:02:24.957Z,13.63
2018-09-06T16:04:53.294Z,11.40
2018-09-06T16:07:22.312Z,12.83
2018-09-06T16:09:51.235Z,12.03
2018-09-06T16:12:20.295Z,12.63
2018-09-06T16:14:49.108Z,28.37
2018-09-06T16:17:18.097Z,12.20
2018-09-06T16:19:47.742Z,18.60
2018-09-06T16:22:16.629Z,14.67
2018-09-06T16:24:45.511Z,16.87
2018-09-06T16:27:13.844Z,12.63
2018-09-06T16:29:42.186Z,15.07
2018-09-06T16:32:10.521Z,11.80
2018-09-06T16:34:38.905Z,14.20
2018-09-06T16:37:07.333Z,14.27
2018-09-06T16:39:35.910Z,17.00
2018-09-06T16:42:05.185Z,11.03
2018-09-06T16:44:33.548Z,14.20
2018-09-06T16:47:01.874Z,15.00
2018-09-06T16:49:31.216Z,18.60
2018-09-06T16:51:59.630Z,14.50
2018-09-06T16:54:28.057Z,12.80
2018-09-06T16:56:56.400Z,13.03
2018-09-06T16:59:24.941Z,17.60
2018-09-06T17:01:54.289Z,12.70
2018-09-06T17:04:23.853Z,15.23
2018-09-06T17:06:53.273Z,12.80
2018-09-06T17:09:22.904Z,12.03
2018-09-06T17:11:52.828Z,12.63
2018-09-06T17:14:22.089Z,13.33
2018-09-06T17:16:52.320Z,19.93
2018-09-06T17:19:21.397Z,12.20
2018-09-06T17:21:50.486Z,12.93
2018-09-06T17:24:20.354Z,15.87
2018-09-06T17:26:48.828Z,12.90
2018-09-06T17:29:18.348Z,15.10
2018-09-06T17:31:47.664Z,12.27
2018-09-06T17:34:16.719Z,15.60
2018-09-06T17:36:45.261Z,16.93
2018-09-06T17:39:14.054Z,15.93
2018-09-06T17:41:42.406Z,19.50
2018-09-06T17:44:10.797Z,13.10
2018-09-06T17:46:39.139Z,13.37
2018-09-06T17:49:07.639Z,10.60
2018-09-06T17:51:35.982Z,11.33
2018-09-06T17:54:04.311Z,12.27
2018-09-06T17:56:32.646Z,11.77
2018-09-06T17:59:01.312Z,14.37
2018-09-06T18:01:33.852Z,17.50
2018-09-06T18:04:02.705Z,11.97
2018-09-06T18:06:31.051Z,12.17
2018-09-06T18:08:59.401Z,12.30
2018-09-06T18:11:28.309Z,11.10
2018-09-06T18:13:57.905Z,11.20
2018-09-06T18:16:26.496Z,15.37
2018-09-06T18:18:55.185Z,13.80
2018-09-06T18:21:24.279Z,12.40
2018-09-06T18:23:54.892Z,23.67
2018-09-06T18:26:23.701Z,14.07
2018-09-06T18:28:52.425Z,11.77
2018-09-06T18:31:22.934Z,12.90
2018-09-06T18:33:52.269Z,9.73
2018-09-06T18:36:20.834Z,13.10
2018-09-06T18:38:51.581Z,10.20
2018-09-06T18:41:21.337Z,11.90
2018-09-06T18:43:51.454Z,11.63
2018-09-06T18:46:20.576Z,11.60
2018-09-06T18:48:48.909Z,11.23
2018-09-06T18:51:20.479Z,9.30
2018-09-06T18:53:49.206Z,10.63
2018-09-06T18:56:19.005Z,10.17
2018-09-06T18:58:48.692Z,12.17
2018-09-06T19:01:17.932Z,12.50
2018-09-06T19:03:47.497Z,12.80
2018-09-06T19:06:16.664Z,11.03
2018-09-06T19:08:45.746Z,9.70
2018-09-06T19:11:14.342Z,17.27
2018-09-06T19:13:42.853Z,12.57
2018-09-06T19:16:11.252Z,17.57
2018-09-06T19:18:40.704Z,10.17
2018-09-06T19:21:09.073Z,10.63
2018-09-06T19:23:37.429Z,14.23
2018-09-06T19:26:05.936Z,11.20
2018-09-06T19:28:34.481Z,14.03
2018-09-06T19:31:02.832Z,13.87
2018-09-06T19:33:32.122Z,11.20
2018-09-06T19:36:00.479Z,15.90
2018-09-06T19:38:31.874Z,11.90
2018-09-06T19:41:00.334Z,11.87
2018-09-06T19:43:28.749Z,11.83
2018-09-06T19:45:57.124Z,12.90
2018-09-06T19:48:26.633Z,12.00
2018-09-06T19:50:55.030Z,13.20
2018-09-06T19:53:23.412Z,12.27
2018-09-06T19:55:53.377Z,13.40
2018-09-06T19:58:23.128Z,11.80
2018-09-06T20:00:51.906Z,13.23
2018-09-06T20:03:20.889Z,14.33
2018-09-06T20:05:51.516Z,19.03
2018-09-06T20:08:21.420Z,17.80
2018-09-06T20:10:51.373Z,16.30
2018-09-06T20:13:21.476Z,14.50
2018-09-06T20:15:49.814Z,16.30
2018-09-06T20:18:18.527Z,12.43
2018-09-06T20:20:48.899Z,12.17
2018-09-06T20:23:20.689Z,14.10
2018-09-06T20:25:49.926Z,11.80
2018-09-06T20:28:18.922Z,12.80
2018-09-06T20:30:51.079Z,14.93
2018-09-06T20:33:21.741Z,16.13
2018-09-06T20:35:51.191Z,15.03
2018-09-06T20:38:21.830Z,14.57
2018-09-06T20:40:52.336Z,17.33
2018-09-06T20:43:22.344Z,14.67
2018-09-06T20:45:53.372Z,11.50
2018-09-06T20:48:22.818Z,14.53
2018-09-06T20:50:52.176Z,12.50
2018-09-06T20:53:22.644Z,14.60
2018-09-06T20:55:53.164Z,18.63
2018-09-06T20:58:23.323Z,16.77
2018-09-06T21:00:53.714Z,13.70
2018-09-06T21:03:22.777Z,13.60
2018-09-06T21:05:52.749Z,16.17
2018-09-06T21:08:22.462Z,16.60
2018-09-06T21:10:51.457Z,20.60
2018-09-06T21:13:19.833Z,14.93
2018-09-06T21:15:49.356Z,18.23
2018-09-06T21:18:18.534Z,15.10
2018-09-06T21:20:48.834Z,19.53
2018-09-06T21:23:18.552Z,15.10
2018-09-06T21:25:47.805Z,16.40
2018-09-06T21:28:16.857Z,13.63
2018-09-06T21:30:45.272Z,16.30
2018-09-06T21:33:14.669Z,14.20
2018-09-06T21:35:43.890Z,15.93
2018-09-06T21:38:12.346Z,20.77
2018-09-06T21:40:40.729Z,14.20
2018-09-06T21:43:09.985Z,23.00
2018-09-06T21:45:38.361Z,18.50
2018-09-06T21:48:06.732Z,16.30
2018-09-06T21:50:35.948Z,19.97
2018-09-06T21:53:04.460Z,18.27
2018-09-06T21:55:32.834Z,16.67
2018-09-06T21:58:01.223Z,18.23
2018-09-06T22:00:29.581Z,17.40
2018-09-06T22:03:03.205Z,17.00
2018-09-06T22:05:31.557Z,17.60
2018-09-06T22:07:59.925Z,16.10
2018-09-06T22:10:28.281Z,15.20
2018-09-06T22:12:57.608Z,19.30
2018-09-06T22:15:25.984Z,17.10
2018-09-06T22:17:54.320Z,17.53
2018-09-06T22:20:23.956Z,18.83
2018-09-06T22:22:53.991Z,18.10
2018-09-06T22:25:23.692Z,16.57
2018-09-06T22:27:53.048Z,22.33
2018-09-06T22:30:21.901Z,22.40
2018-09-06T22:32:51.026Z,18.17
2018-09-06T22:35:19.457Z,18.03
2018-09-06T22:37:48.756Z,20.30
2018-09-06T22:40:18.117Z,16.80
2018-09-06T22:42:47.592Z,23.47
2018-09-06T22:45:16.865Z,17.80
2018-09-06T22:47:47.397Z,20.90
2018-09-06T22:50:17.097Z,20.83
2018-09-06T22:52:47.011Z,21.53
2018-09-06T22:55:15.402Z,16.17
2018-09-06T22:57:44.673Z,19.60
2018-09-06T23:00:13.007Z,19.43
2018-09-06T23:03:49.313Z,17.33
2018-09-06T23:06:24.523Z,20.13
2018-09-06T23:08:54.208Z,18.10
2018-09-06T23:11:23.200Z,23.60
2018-09-06T23:13:53.054Z,21.23
2018-09-06T23:16:21.833Z,17.33
2018-09-06T23:18:51.077Z,21.73
2018-09-06T23:21:21.426Z,20.27
2018-09-06T23:23:51.537Z,18.67
2018-09-06T23:26:21.488Z,20.83
2018-09-06T23:28:50.270Z,17.93
2018-09-06T23:31:18.601Z,19.90
2018-09-06T23:33:46.966Z,20.63
2018-09-06T23:36:15.883Z,21.57
2018-09-06T23:38:44.221Z,22.80
2018-09-06T23:41:12.605Z,16.90
2018-09-06T23:43:41.003Z,22.97
2018-09-06T23:46:10.265Z,18.73
2018-09-06T23:48:38.622Z,19.30
2018-09-06T23:51:07.976Z,20.70
2018-09-06T23:53:36.369Z,19.33
2018-09-06T23:56:04.730Z,22.90
2018-09-06T23:58:33.125Z,25.00
